Terminal Aerodrome Forecast
Issued by NWS

Home | Current Version | Previous Version | Text Only | Print | Product List | Glossary On
Versions: 1 2 3 4 5 6 7 8 9 10 11 12 13 14
609
FTUS46 KSEW 211738
TAFOLM
TAF
KOLM 211738Z 2118/2218 24005KT P6SM SCT025 BKN150
     FM220700 19003KT P6SM OVC060
     FM221400 21003KT P6SM SCT025 OVC040=

USA.gov is the U.S. government's official web portal to all federal, state and local government web resources and services.